KQA721 HKJK-HKMO
Flight info
| Callsign | KQA721 |
|---|---|
| Flight time | 0h 43m |
| Altitude | 31000 |
| Route | ATUDU1D UVOVA UQ135 NEREV NEREV3A |
| Aircraft | A20N/M-SDE2E3FGHIRWXY/LB1 |
Departure
| Time | 2026-04-26 16:45 |
|---|---|
| Airport | Jomo Kenyatta International Airport (HKJK) |
Arrival
| Time | 2026-04-26 17:29 |
|---|---|
| Airport | Moi International Airport (HKMO) |
| Time | Latitude | Longitude | Altitude | Speed | Heading |
|---|---|---|---|---|---|
| 2026-04-26 16:14 | -1.32870 | 36.92545 | 5324 ft | 0 kts | 193° |
| 2026-04-26 16:33 | -1.32856 | 36.92548 | 5316 ft | 4 kts | 193° |
| 2026-04-26 16:33 | -1.32830 | 36.92554 | 5319 ft | 4 kts | 193° |
| 2026-04-26 16:33 | -1.32804 | 36.92560 | 5320 ft | 4 kts | 193° |
| 2026-04-26 16:34 | -1.32784 | 36.92566 | 5320 ft | 4 kts | 225° |
| 2026-04-26 16:34 | -1.32778 | 36.92587 | 5314 ft | 3 kts | 288° |
| 2026-04-26 16:34 | -1.32784 | 36.92604 | 5316 ft | 0 kts | 288° |
| 2026-04-26 16:38 | -1.32783 | 36.92600 | 5316 ft | 2 kts | 288° |
| 2026-04-26 16:38 | -1.32774 | 36.92575 | 5314 ft | 6 kts | 286° |
| 2026-04-26 16:38 | -1.32771 | 36.92559 | 5322 ft | 2 kts | 281° |
| 2026-04-26 16:38 | -1.32767 | 36.92532 | 5324 ft | 6 kts | 276° |
| 2026-04-26 16:39 | -1.32766 | 36.92483 | 5316 ft | 8 kts | 267° |
| 2026-04-26 16:39 | -1.32777 | 36.92422 | 5322 ft | 10 kts | 253° |
| 2026-04-26 16:39 | -1.32804 | 36.92360 | 5322 ft | 9 kts | 241° |
| 2026-04-26 16:39 | -1.32838 | 36.92313 | 5320 ft | 9 kts | 229° |
| 2026-04-26 16:40 | -1.32847 | 36.92250 | 5319 ft | 11 kts | 297° |
| 2026-04-26 16:40 | -1.32800 | 36.92205 | 5324 ft | 10 kts | 310° |
| 2026-04-26 16:40 | -1.32802 | 36.92137 | 5322 ft | 11 kts | 237° |
| 2026-04-26 16:40 | -1.32846 | 36.92077 | 5327 ft | 11 kts | 234° |
| 2026-04-26 16:41 | -1.32894 | 36.92008 | 5322 ft | 13 kts | 243° |
| 2026-04-26 16:41 | -1.32895 | 36.91929 | 5333 ft | 10 kts | 280° |
| 2026-04-26 16:41 | -1.32887 | 36.91880 | 5334 ft | 0 kts | 278° |
| 2026-04-26 16:41 | -1.32886 | 36.91872 | 5334 ft | 2 kts | 278° |
| 2026-04-26 16:42 | -1.32885 | 36.91863 | 5334 ft | 0 kts | 278° |
| 2026-04-26 16:42 | -1.32884 | 36.91863 | 5334 ft | 1 kts | 278° |
| 2026-04-26 16:42 | -1.32882 | 36.91848 | 5334 ft | 4 kts | 278° |
| 2026-04-26 16:42 | -1.32878 | 36.91815 | 5338 ft | 6 kts | 278° |
| 2026-04-26 16:43 | -1.32874 | 36.91766 | 5335 ft | 8 kts | 272° |
| 2026-04-26 16:43 | -1.32845 | 36.91711 | 5340 ft | 10 kts | 319° |
| 2026-04-26 16:43 | -1.32805 | 36.91682 | 5337 ft | 3 kts | 324° |
| 2026-04-26 16:43 | -1.32780 | 36.91664 | 5338 ft | 6 kts | 325° |
| 2026-04-26 16:44 | -1.32759 | 36.91655 | 5336 ft | 3 kts | 347° |
| 2026-04-26 16:44 | -1.32743 | 36.91664 | 5337 ft | 0 kts | 48° |
| 2026-04-26 16:44 | -1.32729 | 36.91680 | 5341 ft | 22 kts | 50° |
| 2026-04-26 16:44 | -1.32479 | 36.92017 | 5315 ft | 95 kts | 54° |
| 2026-04-26 16:45 | -1.31973 | 36.92713 | 5314 ft | 149 kts | 54° |
| 2026-04-26 16:45 | -1.31272 | 36.93652 | 5400 ft | 184 kts | 53° |
| 2026-04-26 16:45 | -1.30473 | 36.94707 | 5878 ft | 196 kts | 52° |
| 2026-04-26 16:45 | -1.29612 | 36.95783 | 6526 ft | 198 kts | 49° |
| 2026-04-26 16:46 | -1.28707 | 36.96819 | 7215 ft | 197 kts | 47° |
| 2026-04-26 16:46 | -1.27764 | 36.97817 | 7892 ft | 197 kts | 45° |
| 2026-04-26 16:46 | -1.26810 | 36.98796 | 8601 ft | 198 kts | 49° |
| 2026-04-26 16:46 | -1.25998 | 36.99984 | 9126 ft | 216 kts | 59° |
| 2026-04-26 16:47 | -1.25219 | 37.01340 | 9558 ft | 238 kts | 59° |
| 2026-04-26 16:47 | -1.24304 | 37.02820 | 9949 ft | 263 kts | 57° |
| 2026-04-26 16:47 | -1.23466 | 37.04541 | 10415 ft | 287 kts | 77° |
| 2026-04-26 16:47 | -1.23409 | 37.06591 | 10883 ft | 311 kts | 101° |
| 2026-04-26 16:48 | -1.24154 | 37.08701 | 11299 ft | 335 kts | 116° |
| 2026-04-26 16:48 | -1.25302 | 37.10801 | 11880 ft | 350 kts | 120° |
| 2026-04-26 16:48 | -1.26524 | 37.12937 | 12822 ft | 354 kts | 120° |
| 2026-04-26 16:48 | -1.27861 | 37.14987 | 13704 ft | 359 kts | 127° |
| 2026-04-26 16:49 | -1.29479 | 37.16914 | 14581 ft | 364 kts | 134° |
| 2026-04-26 16:49 | -1.31304 | 37.18694 | 15434 ft | 368 kts | 136° |
| 2026-04-26 16:49 | -1.33152 | 37.20499 | 16236 ft | 373 kts | 136° |
| 2026-04-26 16:49 | -1.35016 | 37.22339 | 17022 ft | 378 kts | 135° |
| 2026-04-26 16:50 | -1.36894 | 37.24198 | 17783 ft | 382 kts | 135° |
| 2026-04-26 16:50 | -1.38774 | 37.26057 | 18492 ft | 387 kts | 135° |
| 2026-04-26 16:50 | -1.40706 | 37.27967 | 18871 ft | 391 kts | 135° |
| 2026-04-26 16:50 | -1.42649 | 37.29887 | 18988 ft | 392 kts | 135° |
| 2026-04-26 16:51 | -1.44587 | 37.31801 | 19002 ft | 392 kts | 135° |
| 2026-04-26 16:51 | -1.46532 | 37.33722 | 19000 ft | 392 kts | 135° |
| 2026-04-26 16:51 | -1.48462 | 37.35629 | 19000 ft | 390 kts | 135° |
| 2026-04-26 16:51 | -1.50385 | 37.37529 | 19014 ft | 390 kts | 135° |
| 2026-04-26 16:52 | -1.52340 | 37.39461 | 19431 ft | 395 kts | 135° |
| 2026-04-26 16:52 | -1.53636 | 37.40741 | 19993 ft | 395 kts | 135° |
| 2026-04-26 16:52 | -1.56248 | 37.43321 | 20932 ft | 400 kts | 135° |
| 2026-04-26 16:52 | -1.58243 | 37.45293 | 21618 ft | 404 kts | 135° |
| 2026-04-26 16:53 | -1.59913 | 37.46942 | 22135 ft | 409 kts | 135° |
| 2026-04-26 16:53 | -1.61881 | 37.48886 | 22647 ft | 414 kts | 135° |
| 2026-04-26 16:53 | -1.63928 | 37.50909 | 23405 ft | 415 kts | 135° |
| 2026-04-26 16:53 | -1.66000 | 37.52955 | 23969 ft | 420 kts | 135° |
| 2026-04-26 16:54 | -1.68070 | 37.55000 | 24562 ft | 423 kts | 135° |
| 2026-04-26 16:54 | -1.70186 | 37.57091 | 25078 ft | 429 kts | 135° |
| 2026-04-26 16:54 | -1.72314 | 37.59194 | 25704 ft | 430 kts | 135° |
| 2026-04-26 16:54 | -1.74462 | 37.61316 | 26199 ft | 435 kts | 135° |
| 2026-04-26 16:55 | -1.76598 | 37.63426 | 26764 ft | 437 kts | 135° |
| 2026-04-26 16:55 | -1.78771 | 37.65577 | 27254 ft | 440 kts | 135° |
| 2026-04-26 16:55 | -1.80948 | 37.67745 | 27717 ft | 444 kts | 135° |
| 2026-04-26 16:55 | -1.83150 | 37.69945 | 28170 ft | 447 kts | 135° |
| 2026-04-26 16:56 | -1.87567 | 37.74356 | 29011 ft | 453 kts | 135° |
| 2026-04-26 16:56 | -1.89795 | 37.76579 | 29409 ft | 456 kts | 135° |
| 2026-04-26 16:56 | -1.92043 | 37.78821 | 29805 ft | 458 kts | 135° |
| 2026-04-26 16:57 | -1.94324 | 37.81096 | 30200 ft | 461 kts | 135° |
| 2026-04-26 16:57 | -1.96581 | 37.83347 | 30593 ft | 463 kts | 135° |
| 2026-04-26 16:57 | -2.01183 | 37.87937 | 30995 ft | 466 kts | 135° |
| 2026-04-26 16:58 | -2.04999 | 37.91744 | 31000 ft | 465 kts | 135° |
| 2026-04-26 16:59 | -2.12601 | 37.99328 | 31000 ft | 465 kts | 135° |
| 2026-04-26 17:00 | -2.21743 | 38.08450 | 31001 ft | 464 kts | 135° |
| 2026-04-26 17:00 | -2.28619 | 38.15312 | 31002 ft | 465 kts | 135° |
| 2026-04-26 17:01 | -2.33192 | 38.19875 | 31009 ft | 465 kts | 135° |
| 2026-04-26 17:01 | -2.37774 | 38.24449 | 31011 ft | 465 kts | 135° |
| 2026-04-26 17:02 | -2.42352 | 38.29019 | 31015 ft | 465 kts | 135° |
| 2026-04-26 17:02 | -2.46915 | 38.33574 | 31010 ft | 465 kts | 135° |
| 2026-04-26 17:03 | -2.51505 | 38.38157 | 31013 ft | 465 kts | 135° |
| 2026-04-26 17:03 | -2.56063 | 38.42709 | 31011 ft | 464 kts | 135° |
| 2026-04-26 17:04 | -2.60621 | 38.47260 | 31009 ft | 464 kts | 135° |
| 2026-04-26 17:04 | -2.65206 | 38.51840 | 31007 ft | 464 kts | 135° |
| 2026-04-26 17:05 | -2.69744 | 38.56373 | 31006 ft | 463 kts | 135° |
| 2026-04-26 17:05 | -2.74312 | 38.60936 | 31005 ft | 463 kts | 135° |
| 2026-04-26 17:06 | -2.78843 | 38.65463 | 31004 ft | 463 kts | 135° |
| 2026-04-26 17:06 | -2.83398 | 38.70014 | 30706 ft | 461 kts | 135° |
| 2026-04-26 17:07 | -2.85690 | 38.72304 | 30212 ft | 461 kts | 135° |
| 2026-04-26 17:07 | -2.87939 | 38.74552 | 29557 ft | 459 kts | 135° |
| 2026-04-26 17:07 | -2.90216 | 38.76828 | 28916 ft | 455 kts | 135° |
| 2026-04-26 17:07 | -2.92428 | 38.79039 | 28289 ft | 450 kts | 135° |
| 2026-04-26 17:08 | -2.94636 | 38.81246 | 27655 ft | 445 kts | 135° |
| 2026-04-26 17:08 | -2.96810 | 38.83419 | 27043 ft | 439 kts | 135° |
| 2026-04-26 17:08 | -2.98960 | 38.85569 | 26546 ft | 432 kts | 135° |
| 2026-04-26 17:08 | -3.01052 | 38.87660 | 25948 ft | 427 kts | 135° |
| 2026-04-26 17:09 | -3.03151 | 38.89758 | 25330 ft | 423 kts | 135° |
| 2026-04-26 17:09 | -3.04528 | 38.91135 | 24926 ft | 420 kts | 135° |
| 2026-04-26 17:09 | -3.07250 | 38.93857 | 24103 ft | 415 kts | 135° |
| 2026-04-26 17:09 | -3.09280 | 38.95887 | 23491 ft | 411 kts | 135° |
| 2026-04-26 17:10 | -3.11302 | 38.97909 | 22872 ft | 407 kts | 135° |
| 2026-04-26 17:10 | -3.13300 | 38.99907 | 22258 ft | 403 kts | 135° |
| 2026-04-26 17:10 | -3.15253 | 39.01861 | 21658 ft | 400 kts | 135° |
| 2026-04-26 17:10 | -3.17217 | 39.03825 | 21050 ft | 396 kts | 135° |
| 2026-04-26 17:11 | -3.19163 | 39.05771 | 20434 ft | 393 kts | 135° |
| 2026-04-26 17:11 | -3.21097 | 39.07706 | 19768 ft | 391 kts | 135° |
| 2026-04-26 17:11 | -3.22999 | 39.09609 | 19212 ft | 386 kts | 135° |
| 2026-04-26 17:11 | -3.24900 | 39.11509 | 18620 ft | 383 kts | 135° |
| 2026-04-26 17:12 | -3.28680 | 39.15151 | 17462 ft | 375 kts | 136° |
| 2026-04-26 17:12 | -3.30585 | 39.16960 | 16884 ft | 372 kts | 136° |
| 2026-04-26 17:13 | -3.34294 | 39.20495 | 15740 ft | 366 kts | 136° |
| 2026-04-26 17:13 | -3.36129 | 39.22250 | 15171 ft | 362 kts | 136° |
| 2026-04-26 17:13 | -3.39727 | 39.25697 | 14061 ft | 356 kts | 136° |
| 2026-04-26 17:14 | -3.41513 | 39.27409 | 13514 ft | 353 kts | 136° |
| 2026-04-26 17:14 | -3.45023 | 39.30773 | 12535 ft | 343 kts | 136° |
| 2026-04-26 17:14 | -3.46693 | 39.32374 | 12313 ft | 321 kts | 136° |
| 2026-04-26 17:15 | -3.49773 | 39.35327 | 11578 ft | 297 kts | 136° |
| 2026-04-26 17:15 | -3.51242 | 39.36735 | 11173 ft | 287 kts | 136° |
| 2026-04-26 17:15 | -3.52666 | 39.38099 | 10771 ft | 279 kts | 136° |
| 2026-04-26 17:16 | -3.54052 | 39.39429 | 10369 ft | 271 kts | 136° |
| 2026-04-26 17:16 | -3.55401 | 39.40722 | 9965 ft | 265 kts | 136° |
| 2026-04-26 17:16 | -3.56717 | 39.41983 | 9562 ft | 259 kts | 136° |
| 2026-04-26 17:16 | -3.57989 | 39.43204 | 9165 ft | 253 kts | 136° |
| 2026-04-26 17:17 | -3.59258 | 39.44419 | 8761 ft | 248 kts | 136° |
| 2026-04-26 17:17 | -3.60492 | 39.45603 | 8361 ft | 244 kts | 136° |
| 2026-04-26 17:17 | -3.61705 | 39.46766 | 7969 ft | 241 kts | 136° |
| 2026-04-26 17:17 | -3.62919 | 39.47930 | 7557 ft | 238 kts | 136° |
| 2026-04-26 17:18 | -3.64101 | 39.49064 | 7156 ft | 235 kts | 136° |
| 2026-04-26 17:18 | -3.65281 | 39.50195 | 6756 ft | 234 kts | 136° |
| 2026-04-26 17:18 | -3.66445 | 39.51311 | 6360 ft | 233 kts | 136° |
| 2026-04-26 17:18 | -3.67611 | 39.52429 | 5966 ft | 232 kts | 136° |
| 2026-04-26 17:19 | -3.69548 | 39.54287 | 5291 ft | 229 kts | 136° |
| 2026-04-26 17:19 | -3.70695 | 39.55387 | 4891 ft | 228 kts | 136° |
| 2026-04-26 17:19 | -3.72209 | 39.56840 | 4368 ft | 226 kts | 136° |
| 2026-04-26 17:20 | -3.72949 | 39.57550 | 4266 ft | 218 kts | 136° |
| 2026-04-26 17:20 | -3.73679 | 39.58251 | 4089 ft | 213 kts | 136° |
| 2026-04-26 17:20 | -3.75090 | 39.59605 | 4063 ft | 217 kts | 136° |
| 2026-04-26 17:20 | -3.76169 | 39.60639 | 4062 ft | 213 kts | 136° |
| 2026-04-26 17:21 | -3.77247 | 39.61673 | 4066 ft | 215 kts | 136° |
| 2026-04-26 17:21 | -3.78202 | 39.62815 | 4062 ft | 214 kts | 122° |
| 2026-04-26 17:21 | -3.78931 | 39.64120 | 4062 ft | 214 kts | 119° |
| 2026-04-26 17:21 | -3.79645 | 39.65406 | 4061 ft | 214 kts | 119° |
| 2026-04-26 17:22 | -3.80376 | 39.66705 | 4062 ft | 214 kts | 120° |
| 2026-04-26 17:22 | -3.81090 | 39.67968 | 4056 ft | 202 kts | 120° |
| 2026-04-26 17:22 | -3.81784 | 39.69143 | 4057 ft | 191 kts | 128° |
| 2026-04-26 17:22 | -3.82839 | 39.69930 | 4063 ft | 193 kts | 165° |
| 2026-04-26 17:23 | -3.84119 | 39.69980 | 4019 ft | 178 kts | 191° |
| 2026-04-26 17:23 | -3.85283 | 39.69597 | 3775 ft | 172 kts | 205° |
| 2026-04-26 17:23 | -3.86314 | 39.69070 | 3542 ft | 160 kts | 210° |
| 2026-04-26 17:23 | -3.87244 | 39.68545 | 3333 ft | 150 kts | 210° |
| 2026-04-26 17:24 | -3.88126 | 39.68050 | 3141 ft | 142 kts | 210° |
| 2026-04-26 17:24 | -3.89004 | 39.67557 | 2956 ft | 142 kts | 210° |
| 2026-04-26 17:24 | -3.89826 | 39.67095 | 2773 ft | 130 kts | 210° |
| 2026-04-26 17:24 | -3.90609 | 39.66655 | 2605 ft | 131 kts | 210° |
| 2026-04-26 17:25 | -3.91404 | 39.66208 | 2426 ft | 130 kts | 210° |
| 2026-04-26 17:25 | -3.92195 | 39.65764 | 2257 ft | 130 kts | 210° |
| 2026-04-26 17:25 | -3.92981 | 39.65322 | 2084 ft | 129 kts | 210° |
| 2026-04-26 17:25 | -3.93765 | 39.64881 | 1902 ft | 129 kts | 210° |
| 2026-04-26 17:26 | -3.94544 | 39.64443 | 1737 ft | 129 kts | 210° |
| 2026-04-26 17:26 | -3.95315 | 39.64010 | 1573 ft | 128 kts | 210° |
| 2026-04-26 17:26 | -3.96094 | 39.63572 | 1408 ft | 128 kts | 210° |
| 2026-04-26 17:26 | -3.96871 | 39.63135 | 1232 ft | 128 kts | 210° |
| 2026-04-26 17:27 | -3.97645 | 39.62701 | 1062 ft | 127 kts | 210° |
| 2026-04-26 17:27 | -3.98408 | 39.62272 | 895 ft | 127 kts | 210° |
| 2026-04-26 17:27 | -3.99183 | 39.61836 | 726 ft | 127 kts | 210° |
| 2026-04-26 17:27 | -3.99950 | 39.61405 | 562 ft | 126 kts | 210° |
| 2026-04-26 17:28 | -4.00719 | 39.60973 | 390 ft | 126 kts | 210° |
| 2026-04-26 17:28 | -4.01480 | 39.60545 | 235 ft | 126 kts | 210° |
| 2026-04-26 17:28 | -4.02116 | 39.60187 | 211 ft | 67 kts | 210° |
| 2026-04-26 17:28 | -4.02449 | 39.60005 | 209 ft | 50 kts | 207° |
| 2026-04-26 17:29 | -4.02625 | 39.59909 | 212 ft | 17 kts | 199° |
| 2026-04-26 17:29 | -4.02703 | 39.59928 | 207 ft | 16 kts | 155° |
| 2026-04-26 17:29 | -4.02754 | 39.59956 | 215 ft | 7 kts | 150° |
| 2026-04-26 17:29 | -4.02809 | 39.59991 | 206 ft | 12 kts | 140° |
| 2026-04-26 17:30 | -4.02861 | 39.60069 | 206 ft | 15 kts | 119° |
| 2026-04-26 17:30 | -4.02910 | 39.60156 | 205 ft | 9 kts | 120° |
| 2026-04-26 17:30 | -4.02942 | 39.60211 | 203 ft | 0 kts | 122° |
| 2026-04-26 17:30 | -4.02943 | 39.60212 | 203 ft | 1 kts | 123° |
| 2026-04-26 17:31 | -4.02962 | 39.60232 | 216 ft | 7 kts | 139° |
| 2026-04-26 17:31 | -4.03001 | 39.60277 | 209 ft | 7 kts | 119° |
| 2026-04-26 17:31 | -4.03011 | 39.60295 | 207 ft | 0 kts | 119° |
| 2026-04-26 17:32 | -4.03014 | 39.60300 | 205 ft | 2 kts | 120° |
| 2026-04-26 17:32 | -4.03014 | 39.60302 | 205 ft | 0 kts | 120° |